sensor_id;sensor_type;location;lat;lon;timestamp;P1;durP1;ratioP1;P2;durP2;ratioP2
37049;SDS011;22958;51.232;6.826;2023-05-13T00:00:28;23.83;;;15.40;;
37049;SDS011;22958;51.232;6.826;2023-05-13T00:02:53;25.20;;;16.60;;
37049;SDS011;22958;51.232;6.826;2023-05-13T00:05:19;24.80;;;15.13;;
37049;SDS011;22958;51.232;6.826;2023-05-13T00:07:44;20.87;;;14.27;;
37049;SDS011;22958;51.232;6.826;2023-05-13T00:10:10;26.70;;;15.10;;
37049;SDS011;22958;51.232;6.826;2023-05-13T00:12:35;26.50;;;15.47;;
37049;SDS011;22958;51.232;6.826;2023-05-13T00:15:01;25.87;;;16.90;;
37049;SDS011;22958;51.232;6.826;2023-05-13T00:17:27;28.27;;;15.77;;
37049;SDS011;22958;51.232;6.826;2023-05-13T00:19:52;25.33;;;14.07;;
37049;SDS011;22958;51.232;6.826;2023-05-13T00:22:18;26.63;;;14.50;;
37049;SDS011;22958;51.232;6.826;2023-05-13T00:24:43;27.83;;;14.10;;
37049;SDS011;22958;51.232;6.826;2023-05-13T00:27:09;23.00;;;12.10;;
37049;SDS011;22958;51.232;6.826;2023-05-13T00:29:35;19.25;;;11.10;;
37049;SDS011;22958;51.232;6.826;2023-05-13T00:32:00;19.73;;;9.43;;
37049;SDS011;22958;51.232;6.826;2023-05-13T00:34:26;16.53;;;9.77;;
37049;SDS011;22958;51.232;6.826;2023-05-13T00:36:51;12.53;;;8.87;;
37049;SDS011;22958;51.232;6.826;2023-05-13T00:39:17;16.67;;;9.37;;
37049;SDS011;22958;51.232;6.826;2023-05-13T00:41:43;20.67;;;8.83;;
37049;SDS011;22958;51.232;6.826;2023-05-13T00:44:08;33.97;;;10.30;;
37049;SDS011;22958;51.232;6.826;2023-05-13T00:46:34;19.63;;;8.50;;
37049;SDS011;22958;51.232;6.826;2023-05-13T00:48:59;13.97;;;8.77;;
37049;SDS011;22958;51.232;6.826;2023-05-13T00:51:26;20.15;;;8.93;;
37049;SDS011;22958;51.232;6.826;2023-05-13T00:53:51;19.37;;;9.73;;
37049;SDS011;22958;51.232;6.826;2023-05-13T00:56:20;18.73;;;8.67;;
37049;SDS011;22958;51.232;6.826;2023-05-13T00:58:46;18.65;;;9.15;;
37049;SDS011;22958;51.232;6.826;2023-05-13T01:04:07;20.23;;;8.65;;
37049;SDS011;22958;51.232;6.826;2023-05-13T01:09:32;19.20;;;9.20;;
37049;SDS011;22958;51.232;6.826;2023-05-13T01:12:10;22.08;;;10.85;;
37049;SDS011;22958;51.232;6.826;2023-05-13T01:14:48;18.98;;;11.10;;
37049;SDS011;22958;51.232;6.826;2023-05-13T01:17:26;22.05;;;12.05;;
37049;SDS011;22958;51.232;6.826;2023-05-13T01:19:56;22.63;;;11.40;;
37049;SDS011;22958;51.232;6.826;2023-05-13T01:22:24;18.75;;;12.50;;
37049;SDS011;22958;51.232;6.826;2023-05-13T01:24:50;26.00;;;13.37;;
37049;SDS011;22958;51.232;6.826;2023-05-13T01:27:15;22.23;;;12.00;;
37049;SDS011;22958;51.232;6.826;2023-05-13T01:29:41;17.77;;;12.37;;
37049;SDS011;22958;51.232;6.826;2023-05-13T01:32:08;19.83;;;12.48;;
37049;SDS011;22958;51.232;6.826;2023-05-13T01:34:35;18.23;;;12.50;;
37049;SDS011;22958;51.232;6.826;2023-05-13T01:37:02;17.70;;;12.40;;
37049;SDS011;22958;51.232;6.826;2023-05-13T01:39:28;26.35;;;13.00;;
37049;SDS011;22958;51.232;6.826;2023-05-13T01:41:55;19.92;;;12.85;;
37049;SDS011;22958;51.232;6.826;2023-05-13T01:44:21;30.87;;;13.30;;
37049;SDS011;22958;51.232;6.826;2023-05-13T01:46:47;22.83;;;12.20;;
37049;SDS011;22958;51.232;6.826;2023-05-13T01:49:14;20.08;;;12.48;;
37049;SDS011;22958;51.232;6.826;2023-05-13T01:51:40;18.08;;;12.55;;
37049;SDS011;22958;51.232;6.826;2023-05-13T01:54:05;19.07;;;12.03;;
37049;SDS011;22958;51.232;6.826;2023-05-13T01:56:31;23.50;;;13.20;;
37049;SDS011;22958;51.232;6.826;2023-05-13T01:58:56;21.97;;;12.67;;
37049;SDS011;22958;51.232;6.826;2023-05-13T02:01:22;18.47;;;12.47;;
37049;SDS011;22958;51.232;6.826;2023-05-13T02:03:48;27.10;;;13.13;;
37049;SDS011;22958;51.232;6.826;2023-05-13T02:06:13;26.42;;;13.27;;
37049;SDS011;22958;51.232;6.826;2023-05-13T02:08:39;28.90;;;13.60;;
37049;SDS011;22958;51.232;6.826;2023-05-13T02:11:04;21.07;;;13.50;;
37049;SDS011;22958;51.232;6.826;2023-05-13T02:13:30;19.03;;;12.93;;
37049;SDS011;22958;51.232;6.826;2023-05-13T02:15:55;23.30;;;12.27;;
37049;SDS011;22958;51.232;6.826;2023-05-13T02:18:21;25.93;;;11.77;;
37049;SDS011;22958;51.232;6.826;2023-05-13T02:20:47;22.37;;;12.27;;
37049;SDS011;22958;51.232;6.826;2023-05-13T02:23:12;19.90;;;12.47;;
37049;SDS011;22958;51.232;6.826;2023-05-13T02:25:39;22.20;;;12.50;;
37049;SDS011;22958;51.232;6.826;2023-05-13T02:30:31;18.42;;;11.68;;
37049;SDS011;22958;51.232;6.826;2023-05-13T02:32:57;20.97;;;11.97;;
37049;SDS011;22958;51.232;6.826;2023-05-13T02:35:22;19.43;;;11.53;;
37049;SDS011;22958;51.232;6.826;2023-05-13T02:37:54;18.00;;;12.40;;
37049;SDS011;22958;51.232;6.826;2023-05-13T02:40:20;21.52;;;12.35;;
37049;SDS011;22958;51.232;6.826;2023-05-13T02:42:45;19.93;;;12.60;;
37049;SDS011;22958;51.232;6.826;2023-05-13T02:45:11;19.27;;;12.80;;
37049;SDS011;22958;51.232;6.826;2023-05-13T02:47:36;19.23;;;12.43;;
37049;SDS011;22958;51.232;6.826;2023-05-13T02:50:03;15.80;;;11.60;;
37049;SDS011;22958;51.232;6.826;2023-05-13T02:52:30;20.27;;;12.85;;
37049;SDS011;22958;51.232;6.826;2023-05-13T02:54:55;20.30;;;12.83;;
37049;SDS011;22958;51.232;6.826;2023-05-13T02:57:21;18.80;;;12.83;;
37049;SDS011;22958;51.232;6.826;2023-05-13T02:59:46;20.23;;;13.00;;
37049;SDS011;22958;51.232;6.826;2023-05-13T03:02:12;19.60;;;13.13;;
37049;SDS011;22958;51.232;6.826;2023-05-13T03:04:37;22.43;;;12.37;;
37049;SDS011;22958;51.232;6.826;2023-05-13T03:07:05;19.45;;;12.63;;
37049;SDS011;22958;51.232;6.826;2023-05-13T03:09:30;19.60;;;13.13;;
37049;SDS011;22958;51.232;6.826;2023-05-13T03:11:56;21.10;;;13.17;;
37049;SDS011;22958;51.232;6.826;2023-05-13T03:14:22;21.02;;;13.02;;
37049;SDS011;22958;51.232;6.826;2023-05-13T03:16:47;25.83;;;13.33;;
37049;SDS011;22958;51.232;6.826;2023-05-13T03:19:13;20.50;;;13.37;;
37049;SDS011;22958;51.232;6.826;2023-05-13T03:21:38;21.70;;;13.87;;
37049;SDS011;22958;51.232;6.826;2023-05-13T03:24:04;22.83;;;13.97;;
37049;SDS011;22958;51.232;6.826;2023-05-13T03:26:30;24.50;;;14.32;;
37049;SDS011;22958;51.232;6.826;2023-05-13T03:28:55;28.77;;;15.33;;
37049;SDS011;22958;51.232;6.826;2023-05-13T03:31:21;21.13;;;13.77;;
37049;SDS011;22958;51.232;6.826;2023-05-13T03:33:47;23.93;;;14.03;;
37049;SDS011;22958;51.232;6.826;2023-05-13T03:36:13;21.80;;;14.97;;
37049;SDS011;22958;51.232;6.826;2023-05-13T03:38:38;25.10;;;14.45;;
37049;SDS011;22958;51.232;6.826;2023-05-13T03:41:04;24.57;;;14.10;;
37049;SDS011;22958;51.232;6.826;2023-05-13T03:43:30;19.60;;;14.77;;
37049;SDS011;22958;51.232;6.826;2023-05-13T03:45:55;20.37;;;14.67;;
37049;SDS011;22958;51.232;6.826;2023-05-13T03:48:21;24.97;;;15.23;;
37049;SDS011;22958;51.232;6.826;2023-05-13T03:50:46;19.97;;;14.60;;
37049;SDS011;22958;51.232;6.826;2023-05-13T03:53:12;23.27;;;14.67;;
37049;SDS011;22958;51.232;6.826;2023-05-13T03:55:37;21.90;;;15.53;;
37049;SDS011;22958;51.232;6.826;2023-05-13T03:58:12;24.03;;;16.37;;
37049;SDS011;22958;51.232;6.826;2023-05-13T04:00:39;24.42;;;15.38;;
37049;SDS011;22958;51.232;6.826;2023-05-13T04:03:05;26.52;;;16.42;;
37049;SDS011;22958;51.232;6.826;2023-05-13T04:05:31;29.00;;;17.27;;
37049;SDS011;22958;51.232;6.826;2023-05-13T04:07:56;25.20;;;16.87;;
37049;SDS011;22958;51.232;6.826;2023-05-13T04:10:22;24.43;;;16.03;;
37049;SDS011;22958;51.232;6.826;2023-05-13T04:12:47;25.17;;;17.20;;
37049;SDS011;22958;51.232;6.826;2023-05-13T04:15:13;29.47;;;17.10;;
37049;SDS011;22958;51.232;6.826;2023-05-13T04:17:39;33.60;;;17.67;;
37049;SDS011;22958;51.232;6.826;2023-05-13T04:20:04;26.83;;;16.50;;
37049;SDS011;22958;51.232;6.826;2023-05-13T04:22:31;26.20;;;17.13;;
37049;SDS011;22958;51.232;6.826;2023-05-13T04:24:56;31.73;;;17.70;;
37049;SDS011;22958;51.232;6.826;2023-05-13T04:27:22;31.17;;;17.97;;
37049;SDS011;22958;51.232;6.826;2023-05-13T04:29:49;24.95;;;17.35;;
37049;SDS011;22958;51.232;6.826;2023-05-13T04:32:15;33.40;;;17.37;;
37049;SDS011;22958;51.232;6.826;2023-05-13T04:34:45;25.77;;;17.95;;
37049;SDS011;22958;51.232;6.826;2023-05-13T04:37:11;23.90;;;16.92;;
37049;SDS011;22958;51.232;6.826;2023-05-13T04:39:37;27.43;;;16.80;;
37049;SDS011;22958;51.232;6.826;2023-05-13T04:42:02;28.87;;;18.13;;
37049;SDS011;22958;51.232;6.826;2023-05-13T04:44:28;29.97;;;16.63;;
37049;SDS011;22958;51.232;6.826;2023-05-13T04:46:53;27.03;;;17.00;;
37049;SDS011;22958;51.232;6.826;2023-05-13T04:49:19;31.00;;;17.33;;
37049;SDS011;22958;51.232;6.826;2023-05-13T04:51:45;26.17;;;17.17;;
37049;SDS011;22958;51.232;6.826;2023-05-13T04:54:10;33.00;;;16.93;;
37049;SDS011;22958;51.232;6.826;2023-05-13T04:56:35;26.97;;;16.77;;
37049;SDS011;22958;51.232;6.826;2023-05-13T04:59:01;29.30;;;18.07;;
37049;SDS011;22958;51.232;6.826;2023-05-13T05:01:27;29.53;;;16.67;;
37049;SDS011;22958;51.232;6.826;2023-05-13T05:03:52;28.60;;;16.90;;
37049;SDS011;22958;51.232;6.826;2023-05-13T05:06:18;26.57;;;16.23;;
37049;SDS011;22958;51.232;6.826;2023-05-13T05:08:43;26.47;;;16.87;;
37049;SDS011;22958;51.232;6.826;2023-05-13T05:11:09;27.17;;;15.97;;
37049;SDS011;22958;51.232;6.826;2023-05-13T05:13:35;27.40;;;16.60;;
37049;SDS011;22958;51.232;6.826;2023-05-13T05:16:00;23.63;;;16.00;;
37049;SDS011;22958;51.232;6.826;2023-05-13T05:18:26;27.50;;;14.50;;
37049;SDS011;22958;51.232;6.826;2023-05-13T05:20:51;25.07;;;15.97;;
37049;SDS011;22958;51.232;6.826;2023-05-13T05:23:17;28.23;;;16.50;;
37049;SDS011;22958;51.232;6.826;2023-05-13T05:25:42;34.00;;;16.00;;
37049;SDS011;22958;51.232;6.826;2023-05-13T05:28:08;27.23;;;15.93;;
37049;SDS011;22958;51.232;6.826;2023-05-13T05:30:33;25.83;;;15.87;;
37049;SDS011;22958;51.232;6.826;2023-05-13T05:33:03;33.47;;;15.93;;
37049;SDS011;22958;51.232;6.826;2023-05-13T05:35:30;31.23;;;16.15;;
37049;SDS011;22958;51.232;6.826;2023-05-13T05:37:57;25.23;;;14.93;;
37049;SDS011;22958;51.232;6.826;2023-05-13T05:40:23;20.60;;;14.87;;
37049;SDS011;22958;51.232;6.826;2023-05-13T05:42:48;28.53;;;15.70;;
37049;SDS011;22958;51.232;6.826;2023-05-13T05:45:14;23.83;;;14.90;;
37049;SDS011;22958;51.232;6.826;2023-05-13T05:47:39;29.13;;;14.00;;
37049;SDS011;22958;51.232;6.826;2023-05-13T05:50:05;22.73;;;13.97;;
37049;SDS011;22958;51.232;6.826;2023-05-13T05:52:31;21.15;;;13.38;;
37049;SDS011;22958;51.232;6.826;2023-05-13T05:54:56;24.23;;;13.00;;
37049;SDS011;22958;51.232;6.826;2023-05-13T05:57:22;22.23;;;13.70;;
37049;SDS011;22958;51.232;6.826;2023-05-13T05:59:47;29.10;;;12.40;;
37049;SDS011;22958;51.232;6.826;2023-05-13T06:02:13;22.67;;;12.73;;
37049;SDS011;22958;51.232;6.826;2023-05-13T06:04:39;23.27;;;12.97;;
37049;SDS011;22958;51.232;6.826;2023-05-13T06:07:05;32.08;;;13.43;;
37049;SDS011;22958;51.232;6.826;2023-05-13T06:09:31;25.97;;;12.10;;
37049;SDS011;22958;51.232;6.826;2023-05-13T06:11:56;17.97;;;11.20;;
37049;SDS011;22958;51.232;6.826;2023-05-13T06:14:22;18.47;;;10.83;;
37049;SDS011;22958;51.232;6.826;2023-05-13T06:16:47;18.70;;;10.80;;
37049;SDS011;22958;51.232;6.826;2023-05-13T06:19:13;16.73;;;9.80;;
37049;SDS011;22958;51.232;6.826;2023-05-13T06:21:38;14.53;;;9.57;;
37049;SDS011;22958;51.232;6.826;2023-05-13T06:24:04;16.43;;;10.03;;
37049;SDS011;22958;51.232;6.826;2023-05-13T06:26:30;17.00;;;9.23;;
37049;SDS011;22958;51.232;6.826;2023-05-13T06:28:56;16.10;;;7.95;;
37049;SDS011;22958;51.232;6.826;2023-05-13T06:31:21;13.57;;;8.90;;
37049;SDS011;22958;51.232;6.826;2023-05-13T06:33:47;10.03;;;7.40;;
37049;SDS011;22958;51.232;6.826;2023-05-13T06:36:12;22.10;;;8.33;;
37049;SDS011;22958;51.232;6.826;2023-05-13T06:38:38;18.43;;;6.90;;
37049;SDS011;22958;51.232;6.826;2023-05-13T06:41:03;18.00;;;7.57;;
37049;SDS011;22958;51.232;6.826;2023-05-13T06:43:30;12.50;;;6.88;;
37049;SDS011;22958;51.232;6.826;2023-05-13T06:45:55;16.30;;;7.37;;
37049;SDS011;22958;51.232;6.826;2023-05-13T06:48:21;13.60;;;6.90;;
37049;SDS011;22958;51.232;6.826;2023-05-13T06:50:46;15.77;;;6.83;;
37049;SDS011;22958;51.232;6.826;2023-05-13T06:53:13;14.30;;;6.57;;
37049;SDS011;22958;51.232;6.826;2023-05-13T06:55:39;20.47;;;6.60;;
37049;SDS011;22958;51.232;6.826;2023-05-13T06:58:07;9.65;;;6.38;;
37049;SDS011;22958;51.232;6.826;2023-05-13T07:00:37;10.98;;;6.60;;
37049;SDS011;22958;51.232;6.826;2023-05-13T07:03:04;11.63;;;6.63;;
37049;SDS011;22958;51.232;6.826;2023-05-13T07:05:31;14.02;;;6.82;;
37049;SDS011;22958;51.232;6.826;2023-05-13T07:07:57;14.88;;;7.05;;
37049;SDS011;22958;51.232;6.826;2023-05-13T07:10:22;15.13;;;6.30;;
37049;SDS011;22958;51.232;6.826;2023-05-13T07:12:48;18.23;;;5.63;;
37049;SDS011;22958;51.232;6.826;2023-05-13T07:15:14;10.27;;;6.37;;
37049;SDS011;22958;51.232;6.826;2023-05-13T07:17:40;20.77;;;6.25;;
37049;SDS011;22958;51.232;6.826;2023-05-13T07:20:06;12.43;;;5.30;;
37049;SDS011;22958;51.232;6.826;2023-05-13T07:24:59;10.05;;;5.10;;
37049;SDS011;22958;51.232;6.826;2023-05-13T07:27:24;11.13;;;5.43;;
37049;SDS011;22958;51.232;6.826;2023-05-13T07:29:50;11.30;;;5.43;;
37049;SDS011;22958;51.232;6.826;2023-05-13T07:32:15;11.23;;;4.97;;
37049;SDS011;22958;51.232;6.826;2023-05-13T07:34:41;10.17;;;5.17;;
37049;SDS011;22958;51.232;6.826;2023-05-13T07:37:06;21.73;;;5.47;;
37049;SDS011;22958;51.232;6.826;2023-05-13T07:39:32;10.13;;;4.57;;
37049;SDS011;22958;51.232;6.826;2023-05-13T07:41:57;14.53;;;5.43;;
37049;SDS011;22958;51.232;6.826;2023-05-13T07:44:23;9.03;;;4.70;;
37049;SDS011;22958;51.232;6.826;2023-05-13T07:46:48;8.50;;;4.40;;
37049;SDS011;22958;51.232;6.826;2023-05-13T07:49:17;14.93;;;5.28;;
37049;SDS011;22958;51.232;6.826;2023-05-13T07:51:43;12.75;;;4.88;;
37049;SDS011;22958;51.232;6.826;2023-05-13T07:54:08;11.07;;;4.63;;
37049;SDS011;22958;51.232;6.826;2023-05-13T07:56:34;11.33;;;5.03;;
37049;SDS011;22958;51.232;6.826;2023-05-13T07:58:59;11.23;;;5.67;;
37049;SDS011;22958;51.232;6.826;2023-05-13T08:01:25;10.77;;;5.10;;
37049;SDS011;22958;51.232;6.826;2023-05-13T08:03:51;8.63;;;5.30;;
37049;SDS011;22958;51.232;6.826;2023-05-13T08:06:16;13.17;;;5.20;;
37049;SDS011;22958;51.232;6.826;2023-05-13T08:08:42;11.37;;;5.50;;
37049;SDS011;22958;51.232;6.826;2023-05-13T08:11:07;10.13;;;5.27;;
37049;SDS011;22958;51.232;6.826;2023-05-13T08:13:33;11.83;;;5.60;;
37049;SDS011;22958;51.232;6.826;2023-05-13T08:15:59;13.90;;;5.17;;
37049;SDS011;22958;51.232;6.826;2023-05-13T08:18:26;9.10;;;5.15;;
37049;SDS011;22958;51.232;6.826;2023-05-13T08:20:51;12.90;;;5.77;;
37049;SDS011;22958;51.232;6.826;2023-05-13T08:23:17;8.77;;;5.47;;
37049;SDS011;22958;51.232;6.826;2023-05-13T08:25:42;14.27;;;6.70;;
37049;SDS011;22958;51.232;6.826;2023-05-13T08:28:08;14.60;;;6.43;;
37049;SDS011;22958;51.232;6.826;2023-05-13T08:30:33;13.00;;;7.27;;
37049;SDS011;22958;51.232;6.826;2023-05-13T08:32:59;14.67;;;6.50;;
37049;SDS011;22958;51.232;6.826;2023-05-13T08:35:24;14.10;;;6.90;;
37049;SDS011;22958;51.232;6.826;2023-05-13T08:37:50;11.23;;;6.80;;
37049;SDS011;22958;51.232;6.826;2023-05-13T08:40:15;12.63;;;6.77;;
37049;SDS011;22958;51.232;6.826;2023-05-13T08:42:41;12.33;;;7.20;;
37049;SDS011;22958;51.232;6.826;2023-05-13T08:45:09;14.48;;;6.88;;
37049;SDS011;22958;51.232;6.826;2023-05-13T08:50:16;15.93;;;6.93;;
37049;SDS011;22958;51.232;6.826;2023-05-13T08:52:43;14.40;;;6.95;;
37049;SDS011;22958;51.232;6.826;2023-05-13T08:55:09;17.37;;;7.57;;
37049;SDS011;22958;51.232;6.826;2023-05-13T08:57:35;15.38;;;5.97;;
37049;SDS011;22958;51.232;6.826;2023-05-13T09:00:02;18.03;;;6.40;;
37049;SDS011;22958;51.232;6.826;2023-05-13T09:02:29;18.35;;;7.00;;
37049;SDS011;22958;51.232;6.826;2023-05-13T09:04:54;12.50;;;6.73;;
37049;SDS011;22958;51.232;6.826;2023-05-13T09:07:23;13.27;;;7.32;;
37049;SDS011;22958;51.232;6.826;2023-05-13T09:09:49;12.90;;;7.13;;
37049;SDS011;22958;51.232;6.826;2023-05-13T09:15:19;15.18;;;7.68;;
37049;SDS011;22958;51.232;6.826;2023-05-13T09:17:47;16.45;;;7.35;;
37049;SDS011;22958;51.232;6.826;2023-05-13T09:20:18;15.43;;;7.13;;
37049;SDS011;22958;51.232;6.826;2023-05-13T09:22:46;19.52;;;7.32;;
37049;SDS011;22958;51.232;6.826;2023-05-13T09:25:12;16.42;;;6.13;;
37049;SDS011;22958;51.232;6.826;2023-05-13T09:27:40;13.07;;;5.72;;
37049;SDS011;22958;51.232;6.826;2023-05-13T09:30:08;12.40;;;6.07;;
37049;SDS011;22958;51.232;6.826;2023-05-13T09:32:35;10.57;;;5.72;;
37049;SDS011;22958;51.232;6.826;2023-05-13T09:35:13;14.00;;;5.60;;
37049;SDS011;22958;51.232;6.826;2023-05-13T09:37:43;15.80;;;5.47;;
37049;SDS011;22958;51.232;6.826;2023-05-13T09:40:14;12.93;;;5.35;;
37049;SDS011;22958;51.232;6.826;2023-05-13T09:42:43;10.25;;;5.60;;
37049;SDS011;22958;51.232;6.826;2023-05-13T09:45:10;8.50;;;5.15;;
37049;SDS011;22958;51.232;6.826;2023-05-13T09:47:36;12.57;;;5.95;;
37049;SDS011;22958;51.232;6.826;2023-05-13T09:50:02;10.50;;;5.50;;
37049;SDS011;22958;51.232;6.826;2023-05-13T09:52:29;16.88;;;5.88;;
37049;SDS011;22958;51.232;6.826;2023-05-13T09:54:59;15.68;;;6.18;;
37049;SDS011;22958;51.232;6.826;2023-05-13T09:57:28;11.02;;;4.60;;
37049;SDS011;22958;51.232;6.826;2023-05-13T09:59:57;9.48;;;4.60;;
37049;SDS011;22958;51.232;6.826;2023-05-13T10:02:24;11.88;;;4.45;;
37049;SDS011;22958;51.232;6.826;2023-05-13T10:04:51;12.05;;;4.35;;
37049;SDS011;22958;51.232;6.826;2023-05-13T10:07:17;10.50;;;4.72;;
37049;SDS011;22958;51.232;6.826;2023-05-13T10:09:48;15.40;;;4.88;;
37049;SDS011;22958;51.232;6.826;2023-05-13T10:12:26;13.63;;;4.78;;
37049;SDS011;22958;51.232;6.826;2023-05-13T10:14:52;11.32;;;4.50;;
37049;SDS011;22958;51.232;6.826;2023-05-13T10:17:19;8.80;;;4.15;;
37049;SDS011;22958;51.232;6.826;2023-05-13T10:19:47;13.13;;;4.25;;
37049;SDS011;22958;51.232;6.826;2023-05-13T10:22:26;15.38;;;5.30;;
37049;SDS011;22958;51.232;6.826;2023-05-13T10:24:59;13.75;;;4.72;;
37049;SDS011;22958;51.232;6.826;2023-05-13T10:27:27;8.27;;;4.82;;
37049;SDS011;22958;51.232;6.826;2023-05-13T10:29:54;7.95;;;5.05;;
37049;SDS011;22958;51.232;6.826;2023-05-13T10:32:25;18.55;;;5.80;;
37049;SDS011;22958;51.232;6.826;2023-05-13T10:35:14;8.70;;;4.68;;
37049;SDS011;22958;51.232;6.826;2023-05-13T10:43:32;12.88;;;5.88;;
37049;SDS011;22958;51.232;6.826;2023-05-13T10:45:59;16.83;;;5.25;;
37049;SDS011;22958;51.232;6.826;2023-05-13T10:48:39;11.05;;;5.55;;
37049;SDS011;22958;51.232;6.826;2023-05-13T10:51:09;7.47;;;4.95;;
37049;SDS011;22958;51.232;6.826;2023-05-13T10:53:48;10.68;;;5.25;;
37049;SDS011;22958;51.232;6.826;2023-05-13T10:56:15;13.30;;;5.10;;
37049;SDS011;22958;51.232;6.826;2023-05-13T10:58:55;14.32;;;5.22;;
37049;SDS011;22958;51.232;6.826;2023-05-13T11:01:34;8.52;;;4.22;;
37049;SDS011;22958;51.232;6.826;2023-05-13T11:04:12;9.35;;;4.57;;
37049;SDS011;22958;51.232;6.826;2023-05-13T11:06:40;10.45;;;4.60;;
37049;SDS011;22958;51.232;6.826;2023-05-13T11:09:07;9.82;;;4.32;;
37049;SDS011;22958;51.232;6.826;2023-05-13T11:11:37;12.43;;;4.97;;
37049;SDS011;22958;51.232;6.826;2023-05-13T11:14:16;8.13;;;3.92;;
37049;SDS011;22958;51.232;6.826;2023-05-13T11:16:46;6.80;;;4.18;;
37049;SDS011;22958;51.232;6.826;2023-05-13T11:19:25;8.98;;;3.92;;
37049;SDS011;22958;51.232;6.826;2023-05-13T11:21:56;10.85;;;4.35;;
37049;SDS011;22958;51.232;6.826;2023-05-13T11:24:28;5.57;;;3.70;;
37049;SDS011;22958;51.232;6.826;2023-05-13T11:29:33;14.17;;;4.10;;
37049;SDS011;22958;51.232;6.826;2023-05-13T11:32:00;10.05;;;3.85;;
37049;SDS011;22958;51.232;6.826;2023-05-13T11:34:28;11.55;;;3.78;;
37049;SDS011;22958;51.232;6.826;2023-05-13T11:39:29;7.78;;;3.72;;
37049;SDS011;22958;51.232;6.826;2023-05-13T11:41:55;10.68;;;3.15;;
37049;SDS011;22958;51.232;6.826;2023-05-13T11:44:24;8.30;;;3.88;;
37049;SDS011;22958;51.232;6.826;2023-05-13T11:46:50;10.55;;;3.95;;
37049;SDS011;22958;51.232;6.826;2023-05-13T11:49:32;6.25;;;3.65;;
37049;SDS011;22958;51.232;6.826;2023-05-13T11:51:58;8.57;;;4.07;;
37049;SDS011;22958;51.232;6.826;2023-05-13T11:54:28;9.27;;;4.20;;
37049;SDS011;22958;51.232;6.826;2023-05-13T11:56:53;10.88;;;4.32;;
37049;SDS011;22958;51.232;6.826;2023-05-13T11:59:19;9.75;;;3.97;;
37049;SDS011;22958;51.232;6.826;2023-05-13T12:01:45;10.70;;;3.70;;
37049;SDS011;22958;51.232;6.826;2023-05-13T12:04:11;14.77;;;3.88;;
37049;SDS011;22958;51.232;6.826;2023-05-13T12:06:43;11.25;;;3.30;;
37049;SDS011;22958;51.232;6.826;2023-05-13T12:09:12;6.93;;;3.63;;
37049;SDS011;22958;51.232;6.826;2023-05-13T12:11:38;10.23;;;3.92;;
37049;SDS011;22958;51.232;6.826;2023-05-13T12:14:04;7.43;;;4.05;;
37049;SDS011;22958;51.232;6.826;2023-05-13T12:16:30;6.88;;;3.33;;
37049;SDS011;22958;51.232;6.826;2023-05-13T12:18:59;8.98;;;3.40;;
37049;SDS011;22958;51.232;6.826;2023-05-13T12:21:31;8.45;;;3.63;;
37049;SDS011;22958;51.232;6.826;2023-05-13T12:23:58;7.95;;;3.50;;
37049;SDS011;22958;51.232;6.826;2023-05-13T12:26:24;6.72;;;3.95;;
37049;SDS011;22958;51.232;6.826;2023-05-13T12:28:56;10.43;;;3.65;;
37049;SDS011;22958;51.232;6.826;2023-05-13T12:31:25;11.00;;;3.75;;
37049;SDS011;22958;51.232;6.826;2023-05-13T12:33:51;13.15;;;3.53;;
37049;SDS011;22958;51.232;6.826;2023-05-13T12:38:55;8.68;;;3.15;;
37049;SDS011;22958;51.232;6.826;2023-05-13T12:41:22;8.23;;;3.65;;
37049;SDS011;22958;51.232;6.826;2023-05-13T12:43:50;7.68;;;3.70;;
37049;SDS011;22958;51.232;6.826;2023-05-13T12:46:19;8.75;;;3.40;;
37049;SDS011;22958;51.232;6.826;2023-05-13T12:48:45;10.85;;;3.55;;
37049;SDS011;22958;51.232;6.826;2023-05-13T12:51:10;7.72;;;3.55;;
37049;SDS011;22958;51.232;6.826;2023-05-13T12:53:36;6.35;;;3.55;;
37049;SDS011;22958;51.232;6.826;2023-05-13T12:56:02;14.38;;;3.58;;
37049;SDS011;22958;51.232;6.826;2023-05-13T12:58:27;7.65;;;2.75;;
37049;SDS011;22958;51.232;6.826;2023-05-13T13:00:53;6.82;;;2.85;;
37049;SDS011;22958;51.232;6.826;2023-05-13T13:03:18;5.80;;;3.08;;
37049;SDS011;22958;51.232;6.826;2023-05-13T13:05:44;8.93;;;3.30;;
37049;SDS011;22958;51.232;6.826;2023-05-13T13:08:10;4.97;;;2.70;;
37049;SDS011;22958;51.232;6.826;2023-05-13T13:10:36;8.73;;;3.53;;
37049;SDS011;22958;51.232;6.826;2023-05-13T13:13:01;7.00;;;3.40;;
37049;SDS011;22958;51.232;6.826;2023-05-13T13:15:27;10.10;;;3.17;;
37049;SDS011;22958;51.232;6.826;2023-05-13T13:17:52;10.60;;;5.15;;
37049;SDS011;22958;51.232;6.826;2023-05-13T13:20:18;12.20;;;4.65;;
37049;SDS011;22958;51.232;6.826;2023-05-13T13:22:43;6.10;;;3.40;;
37049;SDS011;22958;51.232;6.826;2023-05-13T13:27:34;5.68;;;3.33;;
37049;SDS011;22958;51.232;6.826;2023-05-13T13:30:00;7.97;;;3.00;;
37049;SDS011;22958;51.232;6.826;2023-05-13T13:32:26;14.27;;;3.30;;
37049;SDS011;22958;51.232;6.826;2023-05-13T13:34:52;9.95;;;2.60;;
37049;SDS011;22958;51.232;6.826;2023-05-13T13:37:17;9.00;;;3.67;;
37049;SDS011;22958;51.232;6.826;2023-05-13T13:39:43;6.13;;;3.20;;
37049;SDS011;22958;51.232;6.826;2023-05-13T13:42:08;5.13;;;3.23;;
37049;SDS011;22958;51.232;6.826;2023-05-13T13:44:34;8.47;;;2.93;;
37049;SDS011;22958;51.232;6.826;2023-05-13T13:47:01;10.75;;;2.85;;
37049;SDS011;22958;51.232;6.826;2023-05-13T13:49:26;10.47;;;3.17;;
37049;SDS011;22958;51.232;6.826;2023-05-13T13:51:52;9.37;;;3.17;;
37049;SDS011;22958;51.232;6.826;2023-05-13T13:54:17;5.03;;;2.47;;
37049;SDS011;22958;51.232;6.826;2023-05-13T13:56:43;8.38;;;3.30;;
37049;SDS011;22958;51.232;6.826;2023-05-13T13:59:09;5.28;;;3.00;;
37049;SDS011;22958;51.232;6.826;2023-05-13T14:01:35;5.00;;;2.77;;
37049;SDS011;22958;51.232;6.826;2023-05-13T14:04:14;4.68;;;2.75;;
37049;SDS011;22958;51.232;6.826;2023-05-13T14:06:41;6.35;;;2.90;;
37049;SDS011;22958;51.232;6.826;2023-05-13T14:09:07;8.50;;;2.67;;
37049;SDS011;22958;51.232;6.826;2023-05-13T14:11:33;4.72;;;3.25;;
37049;SDS011;22958;51.232;6.826;2023-05-13T14:13:58;7.97;;;3.17;;
37049;SDS011;22958;51.232;6.826;2023-05-13T14:16:24;6.17;;;2.90;;
37049;SDS011;22958;51.232;6.826;2023-05-13T14:18:49;5.37;;;3.30;;
37049;SDS011;22958;51.232;6.826;2023-05-13T14:21:15;8.30;;;3.20;;
37049;SDS011;22958;51.232;6.826;2023-05-13T14:23:40;7.73;;;3.50;;
37049;SDS011;22958;51.232;6.826;2023-05-13T14:26:07;8.15;;;3.08;;
37049;SDS011;22958;51.232;6.826;2023-05-13T14:28:33;10.43;;;3.08;;
37049;SDS011;22958;51.232;6.826;2023-05-13T14:30:59;8.13;;;3.53;;
37049;SDS011;22958;51.232;6.826;2023-05-13T14:33:24;6.83;;;3.13;;
37049;SDS011;22958;51.232;6.826;2023-05-13T14:35:50;6.13;;;3.17;;
37049;SDS011;22958;51.232;6.826;2023-05-13T14:38:16;14.77;;;4.05;;
37049;SDS011;22958;51.232;6.826;2023-05-13T14:40:42;6.68;;;3.08;;
37049;SDS011;22958;51.232;6.826;2023-05-13T14:43:08;5.60;;;3.10;;
37049;SDS011;22958;51.232;6.826;2023-05-13T14:45:33;8.67;;;3.13;;
37049;SDS011;22958;51.232;6.826;2023-05-13T14:47:59;9.38;;;4.18;;
37049;SDS011;22958;51.232;6.826;2023-05-13T14:50:25;8.83;;;3.10;;
37049;SDS011;22958;51.232;6.826;2023-05-13T14:52:51;7.22;;;3.28;;
37049;SDS011;22958;51.232;6.826;2023-05-13T14:55:16;7.28;;;3.30;;
37049;SDS011;22958;51.232;6.826;2023-05-13T14:57:42;7.63;;;3.45;;
37049;SDS011;22958;51.232;6.826;2023-05-13T15:00:07;10.23;;;3.00;;
37049;SDS011;22958;51.232;6.826;2023-05-13T15:02:34;9.02;;;3.28;;